Time;durP1;ratioP1;P1;durP2;ratioP2;P2;SDS_P1;SDS_P2;PMS_P1;PMS_P2;Temp;Humidity;BMP_temperature;BMP_pressure;BME280_temperature;BME280_humidity;BME280_pressure;Samples;Min_cycle;Max_cycle;Signal;HPM_P1;HPM_P2
2021/04/03 00:04:32;;;;;;;;;;;5.50;99.90;;;;;;13180783;22;19918;-85
2021/04/03 00:09:33;;;;;;;;;;;5.40;99.90;;;;;;13126605;22;20001;-85
2021/04/03 00:14:34;;;;;;;;;;;5.60;99.90;;;;;;13126317;22;20254;-85
2021/04/03 00:19:36;;;;;;;;;;;5.60;99.90;;;;;;13126252;22;20035;-85
2021/04/03 00:24:37;;;;;;;;;;;5.50;99.90;;;;;;13155442;22;20001;-85
2021/04/03 00:29:38;;;;;;;;;;;5.50;99.90;;;;;;13130446;22;20323;-85
2021/04/03 00:34:39;;;;;;;;;;;5.50;99.90;;;;;;13130500;22;20056;-85
2021/04/03 00:39:41;;;;;;;;;;;5.50;99.90;;;;;;13156967;22;19918;-85
2021/04/03 00:44:46;;;;;;;;;;;5.50;99.90;;;;;;13129974;22;19989;-85
2021/04/03 00:49:47;;;;;;;;;;;5.50;99.90;;;;;;13156628;22;19918;-85
2021/04/03 00:54:49;;;;;;;;;;;6.10;99.90;;;;;;13130241;22;20391;-85
2021/04/03 00:59:50;;;;;;;;;;;5.60;99.90;;;;;;13156718;22;19928;-85
2021/04/03 01:04:51;;;;;;;;;;;5.50;99.90;;;;;;13130248;22;19946;-85
2021/04/03 01:09:52;;;;;;;;;;;5.60;99.90;;;;;;13130018;22;19925;-85
2021/04/03 01:15:01;;;;;;;;;;;5.50;99.90;;;;;;13129516;22;19918;-85
2021/04/03 01:20:12;;;;;;;;;;;6.90;99.90;;;;;;13155598;22;20309;-85
2021/04/03 01:25:25;;;;;;;;;;;5.60;99.90;;;;;;13156247;22;19989;-85
2021/04/03 01:30:26;;;;;;;;;;;5.60;99.90;;;;;;13156146;22;19989;-85
2021/04/03 01:35:48;;;;;;;;;;;5.60;99.90;;;;;;13129635;22;19918;-85
2021/04/03 01:40:50;;;;;;;;;;;5.70;99.90;;;;;;13154415;22;19926;-85
2021/04/03 01:45:54;;;;;;;;;;;5.60;99.90;;;;;;13128969;22;20048;-85
2021/04/03 01:50:55;;;;;;;;;;;5.60;99.90;;;;;;13155412;22;19926;-85
2021/04/03 01:55:57;;;;;;;;;;;5.90;99.90;;;;;;13155432;22;19925;-85
2021/04/03 02:00:59;;;;;;;;;;;5.60;99.90;;;;;;13129690;22;19953;-84
2021/04/03 02:06:04;;;;;;;;;;;5.70;99.90;;;;;;13154136;22;19922;-85
2021/04/03 02:11:07;;;;;;;;;;;5.60;99.90;;;;;;13154000;22;20018;-85
2021/04/03 02:16:08;;;;;;;;;;;5.70;99.90;;;;;;13182008;22;20244;-85
2021/04/03 02:21:10;;;;;;;;;;;5.70;99.90;;;;;;13183613;22;19997;-85
2021/04/03 02:26:11;;;;;;;;;;;5.70;99.90;;;;;;13154111;22;20302;-85
2021/04/03 02:31:12;;;;;;;;;;;5.60;99.90;;;;;;13128117;22;19924;-85
2021/04/03 02:36:13;;;;;;;;;;;5.60;99.90;;;;;;13182233;22;19929;-85
2021/04/03 02:41:17;;;;;;;;;;;5.60;99.90;;;;;;13154368;22;19982;-85
2021/04/03 02:46:25;;;;;;;;;;;5.70;99.90;;;;;;13154206;22;20001;-85
2021/04/03 02:51:29;;;;;;;;;;;7.20;99.90;;;;;;13182090;22;19926;-85
2021/04/03 02:56:30;;;;;;;;;;;5.70;99.90;;;;;;13181155;22;20343;-85
2021/04/03 03:01:32;;;;;;;;;;;5.60;99.90;;;;;;13154192;22;19928;-85
2021/04/03 03:06:37;;;;;;;;;;;5.60;99.90;;;;;;13153536;22;19918;-85
2021/04/03 03:11:43;;;;;;;;;;;5.80;99.90;;;;;;13153024;22;19997;-85
2021/04/03 03:16:46;;;;;;;;;;;5.60;99.90;;;;;;13128784;22;19981;-85
2021/04/03 03:21:47;;;;;;;;;;;6.10;99.90;;;;;;13153969;22;19928;-85
2021/04/03 03:26:49;;;;;;;;;;;5.60;99.90;;;;;;13153656;22;20000;-85
2021/04/03 03:31:51;;;;;;;;;;;5.60;99.90;;;;;;13126911;22;20322;-85
2021/04/03 03:36:53;;;;;;;;;;;6.60;99.90;;;;;;13126792;22;19942;-85
2021/04/03 03:41:56;;;;;;;;;;;5.50;99.90;;;;;;13127392;22;20036;-85
2021/04/03 03:46:57;;;;;;;;;;;6.00;99.90;;;;;;13152612;22;20236;-85
2021/04/03 03:52:03;;;;;;;;;;;5.80;99.90;;;;;;13153716;22;19925;-85
2021/04/03 03:57:05;;;;;;;;;;;5.50;99.90;;;;;;13152874;22;19918;-85
2021/04/03 04:02:06;;;;;;;;;;;5.50;99.90;;;;;;13153216;22;19928;-85
2021/04/03 04:07:07;;;;;;;;;;;5.30;99.90;;;;;;13151951;22;20005;-85
2021/04/03 04:12:09;;;;;;;;;;;5.20;99.90;;;;;;13152251;22;19985;-85
2021/04/03 04:17:10;;;;;;;;;;;5.00;99.90;;;;;;13179765;22;19932;-85
2021/04/03 04:22:11;;;;;;;;;;;5.20;99.90;;;;;;13152321;22;19925;-85
2021/04/03 04:27:12;;;;;;;;;;;4.70;99.90;;;;;;13152943;22;19996;-85
2021/04/03 04:32:14;;;;;;;;;;;6.20;99.90;;;;;;13153361;22;19949;-85
2021/04/03 04:37:15;;;;;;;;;;;4.50;99.90;;;;;;13151898;22;19933;-85
2021/04/03 04:42:16;;;;;;;;;;;4.40;99.90;;;;;;13125912;22;20001;-85
2021/04/03 04:47:17;;;;;;;;;;;4.30;99.90;;;;;;13151533;22;19918;-85
2021/04/03 04:52:19;;;;;;;;;;;4.20;99.90;;;;;;13151903;22;19918;-85
2021/04/03 04:57:20;;;;;;;;;;;4.20;99.90;;;;;;13152747;22;19957;-84
2021/04/03 05:02:22;;;;;;;;;;;4.20;99.90;;;;;;13125725;22;19922;-85
2021/04/03 05:07:23;;;;;;;;;;;4.30;99.90;;;;;;13125250;22;19992;-85
2021/04/03 05:12:25;;;;;;;;;;;4.50;99.90;;;;;;13129021;22;20000;-85
2021/04/03 05:17:26;;;;;;;;;;;4.70;99.90;;;;;;13155504;22;20287;-85
2021/04/03 05:22:27;;;;;;;;;;;4.90;99.90;;;;;;13155304;22;19924;-85
2021/04/03 05:27:28;;;;;;;;;;;5.60;99.90;;;;;;13129171;22;19918;-85
2021/04/03 05:32:29;;;;;;;;;;;4.90;99.90;;;;;;13156017;22;19918;-86
2021/04/03 05:37:31;;;;;;;;;;;5.50;99.90;;;;;;13129790;22;19929;-85
2021/04/03 05:42:33;;;;;;;;;;;5.20;99.90;;;;;;13129035;22;19918;-85
2021/04/03 05:47:35;;;;;;;;;;;5.70;99.90;;;;;;13182352;22;19932;-86
2021/04/03 05:52:36;;;;;;;;;;;5.20;99.90;;;;;;13183473;22;19946;-85
2021/04/03 05:57:37;;;;;;;;;;;5.30;99.90;;;;;;13155252;22;19994;-86
2021/04/03 06:02:39;;;;;;;;;;;5.60;99.90;;;;;;13129646;22;19942;-85
2021/04/03 06:07:41;;;;;;;;;;;7.30;99.90;;;;;;13031370;22;20300;-86
2021/04/03 06:12:48;;;;;;;;;;;5.40;99.90;;;;;;13026317;22;19986;-85
2021/04/03 06:17:53;;;;;;;;;;;5.50;99.90;;;;;;12999822;22;19925;-86
2021/04/03 06:22:54;;;;;;;;;;;5.50;99.90;;;;;;13051872;22;20239;-86
2021/04/03 06:28:05;;;;;;;;;;;5.60;99.90;;;;;;13050835;22;19995;-86
2021/04/03 06:33:17;;;;;;;;;;;5.70;99.90;;;;;;13051785;22;19965;-86
2021/04/03 06:38:19;;;;;;;;;;;5.60;99.90;;;;;;13051539;22;19945;-86
2021/04/03 06:43:21;;;;;;;;;;;5.80;99.90;;;;;;13025278;22;19923;-86
2021/04/03 06:48:23;;;;;;;;;;;5.70;99.90;;;;;;13025370;22;19922;-86
2021/04/03 06:53:25;;;;;;;;;;;6.40;99.90;;;;;;13024421;22;20001;-86
2021/04/03 06:58:27;;;;;;;;;;;5.80;99.90;;;;;;13049737;22;19919;-86
2021/04/03 07:03:28;;;;;;;;;;;5.90;99.90;;;;;;13001964;22;20412;-86
2021/04/03 07:08:31;;;;;;;;;;;5.90;99.90;;;;;;13062499;22;20253;-86
2021/04/03 07:13:32;;;;;;;;;;;5.80;99.90;;;;;;13088213;22;20308;-86
2021/04/03 07:18:34;;;;;;;;;;;6.00;99.90;;;;;;13113411;22;19922;-86
2021/04/03 07:23:38;;;;;;;;;;;6.00;99.90;;;;;;13061959;22;20301;-86
2021/04/03 07:28:40;;;;;;;;;;;7.10;99.90;;;;;;13062133;22;20365;-86
2021/04/03 07:33:49;;;;;;;;;;;6.90;99.90;;;;;;13087444;22;19957;-86
2021/04/03 07:38:50;;;;;;;;;;;;;;;;;;13115698;22;20065;-86
2021/04/03 07:43:52;;;;;;;;;;;6.40;99.90;;;;;;13114132;22;19933;-86
2021/04/03 07:48:54;;;;;;;;;;;6.50;99.90;;;;;;13086858;22;20311;-86
2021/04/03 07:53:56;;;;;;;;;;;6.50;99.90;;;;;;13088080;22;19946;-86
2021/04/03 07:58:58;;;;;;;;;;;6.60;99.90;;;;;;13061220;22;20390;-86
2021/04/03 08:04:25;;;;;;;;;;;6.60;99.90;;;;;;13091244;22;20270;-86
2021/04/03 08:09:30;;;;;;;;;;;6.90;99.90;;;;;;13115491;22;19919;-86
2021/04/03 08:14:32;;;;;;;;;;;7.00;99.90;;;;;;13086448;22;19929;-86
2021/04/03 08:19:34;;;;;;;;;;;7.20;99.90;;;;;;13087490;22;19929;-86
2021/04/03 08:24:36;;;;;;;;;;;7.30;99.90;;;;;;13113186;22;19977;-86
2021/04/03 08:29:37;;;;;;;;;;;7.50;99.90;;;;;;13062988;22;19997;-86
2021/04/03 08:34:44;;;;;;;;;;;7.60;99.90;;;;;;13089549;22;19989;-86
2021/04/03 08:39:46;;;;;;;;;;;7.70;99.90;;;;;;13090304;22;19928;-86
2021/04/03 08:44:47;;;;;;;;;;;7.40;99.90;;;;;;13116814;22;20362;-86
2021/04/03 08:49:48;;;;;;;;;;;7.90;99.90;;;;;;13093986;22;19993;-86
2021/04/03 08:54:49;;;;;;;;;;;7.70;99.90;;;;;;13093407;22;19953;-84
2021/04/03 08:59:51;;;;;;;;;;;8.50;99.90;;;;;;13093255;22;20336;-86
2021/04/03 09:04:52;;;;;;;;;;;8.80;99.90;;;;;;13119399;22;19922;-86
2021/04/03 09:10:03;;;;;;;;;;;9.10;99.90;;;;;;13092409;22;20313;-86
2021/04/03 09:15:08;;;;;;;;;;;9.40;99.90;;;;;;13093108;22;19918;-87
2021/04/03 09:20:13;;;;;;;;;;;9.90;99.90;;;;;;13118660;22;20331;-87
2021/04/03 09:25:15;;;;;;;;;;;10.20;99.90;;;;;;13091258;22;19997;-86
2021/04/03 09:30:17;;;;;;;;;;;10.50;99.90;;;;;;13119000;22;20005;-88
2021/04/03 09:35:22;;;;;;;;;;;12.10;99.90;;;;;;13119251;22;20025;-86
2021/04/03 09:40:37;;;;;;;;;;;12.10;99.90;;;;;;13121173;22;19994;-87
2021/04/03 09:45:39;;;;;;;;;;;11.00;98.20;;;;;;13092574;22;19919;-87
2021/04/03 09:50:41;;;;;;;;;;;11.10;99.80;;;;;;13092568;22;19918;-87
2021/04/03 09:55:42;;;;;;;;;;;10.20;99.90;;;;;;13120222;22;19950;-87
2021/04/03 10:00:43;;;;;;;;;;;12.60;98.70;;;;;;13093218;22;19950;-87
2021/04/03 10:05:45;;;;;;;;;;;13.40;96.80;;;;;;13090996;22;20332;-87
2021/04/03 10:10:46;;;;;;;;;;;11.60;96.00;;;;;;13090406;22;20003;-86
2021/04/03 10:15:47;;;;;;;;;;;12.00;96.20;;;;;;13116675;22;19954;-87
2021/04/03 10:20:49;;;;;;;;;;;11.40;97.20;;;;;;13091904;22;19918;-87
2021/04/03 10:25:50;;;;;;;;;;;11.50;95.60;;;;;;13119470;22;19919;-87
2021/04/03 10:30:51;;;;;;;;;;;12.30;94.70;;;;;;13091442;22;19994;-87
2021/04/03 10:35:53;;;;;;;;;;;13.90;88.60;;;;;;13119809;22;19919;-87
2021/04/03 10:40:54;;;;;;;;;;;13.60;87.70;;;;;;13118851;22;19942;-87
2021/04/03 10:45:56;;;;;;;;;;;13.80;90.10;;;;;;13119361;22;19943;-86
2021/04/03 10:50:57;;;;;;;;;;;14.40;84.30;;;;;;13092255;22;19990;-86
2021/04/03 10:55:58;;;;;;;;;;;14.50;80.80;;;;;;13091182;22;19972;-86
2021/04/03 11:01:00;;;;;;;;;;;13.50;84.20;;;;;;13091355;22;20239;-87
2021/04/03 11:06:01;;;;;;;;;;;14.40;83.70;;;;;;13089866;22;20331;-87
2021/04/03 11:11:03;;;;;;;;;;;14.80;74.90;;;;;;13118383;22;19946;-88
2021/04/03 11:16:04;;;;;;;;;;;;;;;;;;13117146;22;20331;-88
2021/04/03 11:21:06;;;;;;;;;;;14.70;73.40;;;;;;13112446;22;20654;-88
2021/04/03 11:26:07;;;;;;;;;;;14.20;79.20;;;;;;13089683;22;19922;-88
2021/04/03 11:31:09;;;;;;;;;;;14.70;76.50;;;;;;13112377;22;19950;-88
2021/04/03 11:36:11;;;;;;;;;;;14.40;75.30;;;;;;13089943;22;19985;-86
2021/04/03 11:41:12;;;;;;;;;;;14.00;80.70;;;;;;13116630;22;19922;-86
2021/04/03 11:46:13;;;;;;;;;;;13.40;80.20;;;;;;13117468;22;20672;-88
2021/04/03 11:51:15;;;;;;;;;;;13.90;81.90;;;;;;13117142;22;19919;-88
2021/04/03 11:56:16;;;;;;;;;;;13.20;78.10;;;;;;13117446;22;19926;-87
2021/04/03 12:01:17;;;;;;;;;;;13.90;74.00;;;;;;13089377;22;19968;-86
2021/04/03 12:06:18;;;;;;;;;;;14.30;69.60;;;;;;13126340;22;19919;-85
2021/04/03 12:11:20;;;;;;;;;;;13.70;67.00;;;;;;13150155;22;19919;-87
2021/04/03 12:16:21;;;;;;;;;;;14.60;74.90;;;;;;13174527;22;19993;-88
2021/04/03 12:21:22;;;;;;;;;;;13.60;68.10;;;;;;13188021;22;19989;-87
2021/04/03 12:26:24;;;;;;;;;;;13.90;67.00;;;;;;13162768;22;19918;-87
2021/04/03 12:31:25;;;;;;;;;;;14.30;71.60;;;;;;13162857;22;19985;-85
2021/04/03 12:36:26;;;;;;;;;;;14.10;69.10;;;;;;13135073;22;19925;-85
2021/04/03 12:41:28;;;;;;;;;;;14.80;69.40;;;;;;13190165;22;19924;-84
2021/04/03 12:46:29;;;;;;;;;;;13.60;69.60;;;;;;13161415;22;19954;-84
2021/04/03 12:51:31;;;;;;;;;;;13.50;71.70;;;;;;13188945;22;19918;-88
2021/04/03 12:56:32;;;;;;;;;;;14.40;90.60;;;;;;13162700;22;19929;-87
2021/04/03 13:01:33;;;;;;;;;;;16.00;71.70;;;;;;13161832;22;20299;-87
2021/04/03 13:06:35;;;;;;;;;;;15.70;61.80;;;;;;13188845;22;19918;-87
2021/04/03 13:11:36;;;;;;;;;;;15.70;64.90;;;;;;13162542;22;19985;-87
2021/04/03 13:16:37;;;;;;;;;;;15.50;65.80;;;;;;13189139;22;20313;-86
2021/04/03 13:21:39;;;;;;;;;;;14.00;76.50;;;;;;13161633;22;20027;-86
2021/04/03 13:26:40;;;;;;;;;;;13.50;76.00;;;;;;13189978;22;20000;-86
2021/04/03 13:31:42;;;;;;;;;;;13.70;80.70;;;;;;13160711;22;19990;-85
2021/04/03 13:36:43;;;;;;;;;;;14.70;75.30;;;;;;13185319;22;19935;-86
2021/04/03 13:41:44;;;;;;;;;;;14.90;67.80;;;;;;13158248;22;19946;-86
2021/04/03 13:46:46;;;;;;;;;;;14.70;65.20;;;;;;13157381;22;19942;-86
2021/04/03 13:51:47;;;;;;;;;;;14.60;61.70;;;;;;13157765;22;19993;-85
2021/04/03 13:56:49;;;;;;;;;;;14.30;65.70;;;;;;13184731;22;19918;-85
2021/04/03 14:01:50;;;;;;;;;;;14.00;65.40;;;;;;13185374;22;19989;-85
2021/04/03 14:06:51;;;;;;;;;;;13.40;69.90;;;;;;13184698;22;19941;-85
2021/04/03 14:11:53;;;;;;;;;;;13.30;67.60;;;;;;13158114;22;19925;-86
2021/04/03 14:16:55;;;;;;;;;;;14.50;67.00;;;;;;13185793;22;19997;-85
2021/04/03 14:22:12;;;;;;;;;;;14.20;62.40;;;;;;13160988;22;20296;-85
2021/04/03 14:27:14;;;;;;;;;;;13.60;70.90;;;;;;13184528;22;20005;-85
2021/04/03 14:32:15;;;;;;;;;;;13.40;68.00;;;;;;13184243;22;19925;-85
2021/04/03 14:37:17;;;;;;;;;;;13.20;68.10;;;;;;13154394;22;19918;-85
2021/04/03 14:42:18;;;;;;;;;;;13.20;68.90;;;;;;13152418;22;19928;-84
2021/04/03 14:47:19;;;;;;;;;;;13.20;68.30;;;;;;13151829;22;20346;-85
2021/04/03 14:52:20;;;;;;;;;;;13.00;75.90;;;;;;13154555;22;20000;-85
2021/04/03 14:57:22;;;;;;;;;;;12.80;76.60;;;;;;13181138;22;19997;-85
2021/04/03 15:02:23;;;;;;;;;;;12.70;77.00;;;;;;13153924;22;19925;-85
2021/04/03 15:07:24;;;;;;;;;;;12.90;76.10;;;;;;13153157;22;19985;-85
2021/04/03 15:12:26;;;;;;;;;;;13.60;73.30;;;;;;13128003;22;19989;-85
2021/04/03 15:17:27;;;;;;;;;;;13.70;73.70;;;;;;13154059;22;19924;-85
2021/04/03 15:22:28;;;;;;;;;;;13.90;73.30;;;;;;13126966;22;20235;-85
2021/04/03 15:27:29;;;;;;;;;;;13.20;76.70;;;;;;13126739;22;19918;-86
2021/04/03 15:32:31;;;;;;;;;;;13.30;79.50;;;;;;13155899;22;19919;-85
2021/04/03 15:37:33;;;;;;;;;;;12.50;80.20;;;;;;13183794;22;19993;-86
2021/04/03 15:42:34;;;;;;;;;;;12.10;81.70;;;;;;13182849;22;20001;-85
2021/04/03 15:47:36;;;;;;;;;;;12.20;85.60;;;;;;13183796;22;19925;-85
2021/04/03 15:52:37;;;;;;;;;;;12.10;85.10;;;;;;13155257;22;19919;-85
2021/04/03 15:57:39;;;;;;;;;;;12.90;80.20;;;;;;13183099;22;19918;-87
2021/04/03 16:02:41;;;;;;;;;;;12.50;80.60;;;;;;13155529;22;19925;-85
2021/04/03 16:07:44;;;;;;;;;;;12.50;83.10;;;;;;13181311;22;20285;-85
2021/04/03 16:12:45;;;;;;;;;;;12.50;82.90;;;;;;13184809;22;20033;-87
2021/04/03 16:17:47;;;;;;;;;;;12.60;81.80;;;;;;13183513;22;20343;-87
2021/04/03 16:22:49;;;;;;;;;;;12.80;80.00;;;;;;13152245;22;20398;-88
2021/04/03 16:27:50;;;;;;;;;;;12.50;81.20;;;;;;13126073;22;19919;-87
2021/04/03 16:32:52;;;;;;;;;;;;;;;;;;13154973;22;19938;-87
2021/04/03 16:37:53;;;;;;;;;;;12.10;84.70;;;;;;13154851;22;20382;-87
2021/04/03 16:42:55;;;;;;;;;;;11.90;87.30;;;;;;13129655;22;19925;-87
2021/04/03 16:47:57;;;;;;;;;;;11.70;89.50;;;;;;13156750;22;19918;-87
2021/04/03 16:52:58;;;;;;;;;;;11.20;90.70;;;;;;13155859;22;19924;-86
2021/04/03 16:57:59;;;;;;;;;;;11.20;90.70;;;;;;13154870;22;19918;-86
2021/04/03 17:03:01;;;;;;;;;;;10.80;90.80;;;;;;13155329;22;19918;-86
2021/04/03 17:08:03;;;;;;;;;;;10.80;92.90;;;;;;13157820;22;19923;-85
2021/04/03 17:13:04;;;;;;;;;;;10.50;93.40;;;;;;13186064;22;19940;-85
2021/04/03 17:18:06;;;;;;;;;;;10.20;93.30;;;;;;13131904;22;19919;-87
2021/04/03 17:23:07;;;;;;;;;;;10.10;93.50;;;;;;13186062;22;20024;-86
2021/04/03 17:28:08;;;;;;;;;;;9.90;94.00;;;;;;13157605;22;20275;-86
2021/04/03 17:33:09;;;;;;;;;;;9.50;94.60;;;;;;13186378;22;19918;-85
2021/04/03 17:38:11;;;;;;;;;;;9.40;95.80;;;;;;13184500;22;19957;-85
2021/04/03 17:43:12;;;;;;;;;;;9.20;95.70;;;;;;13155421;22;19998;-85
2021/04/03 17:48:13;;;;;;;;;;;9.00;96.20;;;;;;13185547;22;19950;-85
2021/04/03 17:53:15;;;;;;;;;;;9.00;97.20;;;;;;13185161;22;20398;-85
2021/04/03 17:58:16;;;;;;;;;;;8.60;97.20;;;;;;13185585;22;20001;-85
2021/04/03 18:03:18;;;;;;;;;;;9.10;98.00;;;;;;13156065;22;19958;-86
2021/04/03 18:08:19;;;;;;;;;;;8.30;97.80;;;;;;13184519;22;19961;-85
2021/04/03 18:13:21;;;;;;;;;;;9.10;98.90;;;;;;13132284;22;19922;-85
2021/04/03 18:18:22;;;;;;;;;;;8.10;98.80;;;;;;13181928;22;19934;-86
2021/04/03 18:23:24;;;;;;;;;;;7.80;99.90;;;;;;13184644;22;20005;-86
2021/04/03 18:28:26;;;;;;;;;;;7.70;99.90;;;;;;13184674;22;20004;-86
2021/04/03 18:33:27;;;;;;;;;;;7.60;99.90;;;;;;13184380;22;19926;-86
2021/04/03 18:38:29;;;;;;;;;;;7.30;99.90;;;;;;13182930;22;20242;-86
2021/04/03 18:43:31;;;;;;;;;;;7.40;99.90;;;;;;13182806;22;20316;-86
2021/04/03 18:48:33;;;;;;;;;;;7.30;99.90;;;;;;13184293;22;20354;-86
2021/04/03 18:53:35;;;;;;;;;;;7.20;99.90;;;;;;13184817;22;19918;-86
2021/04/03 18:58:37;;;;;;;;;;;7.10;99.90;;;;;;13183233;22;19918;-86
2021/04/03 19:03:38;;;;;;;;;;;7.00;99.90;;;;;;13182384;22;19942;-86
2021/04/03 19:08:39;;;;;;;;;;;6.90;99.90;;;;;;13181697;22;19918;-86
2021/04/03 19:13:41;;;;;;;;;;;7.30;99.90;;;;;;13182946;22;19918;-86
2021/04/03 19:18:44;;;;;;;;;;;6.70;99.90;;;;;;13182458;22;20344;-86
2021/04/03 19:23:45;;;;;;;;;;;6.60;99.90;;;;;;13156725;22;19990;-86
2021/04/03 19:28:47;;;;;;;;;;;6.60;99.90;;;;;;13129723;22;19918;-86
2021/04/03 19:33:48;;;;;;;;;;;6.50;99.90;;;;;;13156455;22;19918;-86
2021/04/03 19:38:50;;;;;;;;;;;6.30;99.90;;;;;;13183741;22;19926;-86
2021/04/03 19:43:52;;;;;;;;;;;6.20;99.90;;;;;;13155006;22;19938;-86
2021/04/03 19:48:54;;;;;;;;;;;6.20;99.90;;;;;;13156093;22;19957;-86
2021/04/03 19:53:55;;;;;;;;;;;6.00;99.90;;;;;;13183440;22;19993;-86
2021/04/03 19:58:57;;;;;;;;;;;5.90;99.90;;;;;;13182581;22;19992;-86
2021/04/03 20:03:58;;;;;;;;;;;5.90;99.90;;;;;;13182725;22;19941;-87
2021/04/03 20:09:00;;;;;;;;;;;5.90;99.90;;;;;;13128179;22;19949;-86
2021/04/03 20:14:01;;;;;;;;;;;5.80;99.90;;;;;;13183409;22;19924;-86
2021/04/03 20:19:03;;;;;;;;;;;5.80;99.90;;;;;;13153285;22;20393;-86
2021/04/03 20:24:04;;;;;;;;;;;5.60;99.90;;;;;;13181886;22;19918;-86
2021/04/03 20:29:06;;;;;;;;;;;5.50;99.90;;;;;;13127972;22;19961;-86
2021/04/03 20:34:07;;;;;;;;;;;5.50;99.90;;;;;;13183313;22;20001;-86
2021/04/03 20:39:09;;;;;;;;;;;5.60;99.90;;;;;;13155797;22;19918;-86
2021/04/03 20:44:10;;;;;;;;;;;5.50;99.90;;;;;;13134127;22;19926;-86
2021/04/03 20:49:11;;;;;;;;;;;5.40;99.90;;;;;;13158924;22;20243;-86
2021/04/03 20:54:14;;;;;;;;;;;5.30;99.90;;;;;;13158958;22;19928;-86
2021/04/03 20:59:15;;;;;;;;;;;6.00;99.90;;;;;;13159159;22;19985;-86
2021/04/03 21:04:17;;;;;;;;;;;5.30;99.90;;;;;;13158649;22;20350;-86
2021/04/03 21:09:18;;;;;;;;;;;5.30;99.90;;;;;;13158971;22;19925;-86
2021/04/03 21:14:20;;;;;;;;;;;5.70;99.90;;;;;;13186256;22;20311;-86
2021/04/03 21:19:21;;;;;;;;;;;5.40;99.90;;;;;;13157778;22;19975;-87
2021/04/03 21:24:22;;;;;;;;;;;5.40;99.90;;;;;;13182892;22;19985;-86
2021/04/03 21:29:24;;;;;;;;;;;5.60;99.90;;;;;;13152116;22;19922;-87
2021/04/03 21:34:25;;;;;;;;;;;5.50;99.90;;;;;;13128960;22;19922;-86
2021/04/03 21:39:27;;;;;;;;;;;5.50;99.90;;;;;;13155277;22;19945;-86
2021/04/03 21:44:28;;;;;;;;;;;5.50;99.90;;;;;;13154423;22;19925;-86
2021/04/03 21:49:29;;;;;;;;;;;5.40;99.90;;;;;;13183344;22;19929;-86
2021/04/03 21:54:30;;;;;;;;;;;5.40;99.90;;;;;;13181951;22;19918;-86
2021/04/03 21:59:32;;;;;;;;;;;5.40;99.90;;;;;;13154593;22;20000;-86
2021/04/03 22:04:33;;;;;;;;;;;5.40;99.90;;;;;;13155563;22;19946;-86
2021/04/03 22:09:34;;;;;;;;;;;5.40;99.90;;;;;;13182247;22;20005;-86
2021/04/03 22:14:35;;;;;;;;;;;5.50;99.90;;;;;;13154526;22;19983;-86
2021/04/03 22:19:36;;;;;;;;;;;5.50;99.90;;;;;;13128943;22;19995;-86
2021/04/03 22:24:38;;;;;;;;;;;5.60;99.90;;;;;;13155083;22;19941;-86
2021/04/03 22:29:39;;;;;;;;;;;5.80;99.90;;;;;;13154575;22;19954;-86
2021/04/03 22:34:40;;;;;;;;;;;5.80;99.90;;;;;;13154334;22;19941;-86
2021/04/03 22:39:42;;;;;;;;;;;5.70;99.90;;;;;;13182342;22;19922;-86
2021/04/03 22:44:43;;;;;;;;;;;5.90;99.90;;;;;;13154804;22;19989;-86
2021/04/03 22:49:44;;;;;;;;;;;5.90;99.90;;;;;;13127853;22;19928;-86
2021/04/03 22:54:45;;;;;;;;;;;5.80;99.90;;;;;;13182296;22;19985;-86
2021/04/03 22:59:47;;;;;;;;;;;8.10;99.90;;;;;;13154219;22;19925;-86
2021/04/03 23:04:48;;;;;;;;;;;7.00;99.90;;;;;;13181923;22;19918;-86
2021/04/03 23:09:49;;;;;;;;;;;5.90;99.90;;;;;;13128442;22;19929;-86
2021/04/03 23:14:50;;;;;;;;;;;5.90;99.90;;;;;;13181781;22;19949;-86
2021/04/03 23:19:52;;;;;;;;;;;5.80;99.90;;;;;;13152889;22;19922;-86
2021/04/03 23:24:53;;;;;;;;;;;5.80;99.90;;;;;;13154170;22;19989;-86
2021/04/03 23:29:54;;;;;;;;;;;5.80;99.90;;;;;;13153612;22;19941;-86
2021/04/03 23:34:55;;;;;;;;;;;5.80;99.90;;;;;;13181154;22;19922;-86
2021/04/03 23:39:57;;;;;;;;;;;5.80;99.90;;;;;;13181393;22;19953;-86
2021/04/03 23:44:58;;;;;;;;;;;5.80;99.90;;;;;;13153883;22;19946;-86
2021/04/03 23:49:59;;;;;;;;;;;6.80;99.90;;;;;;13152899;22;19965;-86
2021/04/03 23:55:00;;;;;;;;;;;6.10;99.90;;;;;;13180841;22;19925;-86
